Sterling, IL

5:12 AM CST on March 05, 2015 (GMT -0600)
Snavely Subdivision (2.0mi NE Sterling) | Change Station
CLOSE
Current Station
Personal Weather Station
Location: Sterling, IL
Elevation: 715 ft
Nearby Weather Stations

Elev 715 ft 41.82 °N, 89.67 °W | Updated 2 minutes ago

Clear
Clear
1.5 °F
Feels Like 1 °F
N
0.0
Wind Variable Wind from NW
Gusts 0.0 mph

Today
High -- | Low -- °F
--% Chance of Precip.
Yesterday
High -- | Low -- °F
Precip. -- in
6:27 AM 5:53 PM
Full, 100% visible
Pressure 30.42 in
Visibility 10.0 miles
Clouds Clear
Windchill 1 °F
Dew Point -3 °F
Humidity 81%
Rainfall in
Snow Depth Not available.
UV 0 out of 12
Pollen .60 out of 12
Air Quality Not available.
Flu Activity Not available.
METAR KSQI 051055Z AUTO 28005KT 10SM CLR M18/M21 A3042 RMK AO1

More Conditions Fewer Conditions

Pressure 30.42 in
Visibility 10.0 miles
Clouds Clear
Windchill 1 °F
Dew Point -3 °F
Humidity 81%
Rainfall in
Snow Depth Not available.
UV 0 out of 12
Pollen .60 out of 12
Air Quality Not available.
Flu Activity Not available.
METAR KSQI 051055Z AUTO 28005KT 10SM CLR M18/M21 A3042 RMK AO1

More Conditions Fewer Conditions

10-Day Weather Forecast

Almanac

Astronomy

Mar. 05, 2015 Rise Set
Actual Time
Civil Twilight
Nautical Twilight
Astronomical Twilight
Moon
Length of Visible Light
Length of Day
Tomorrow will be .
, % of the Moon is Illuminated

Today's Extremes

State Highs State Lows

Community

WunderPhotos

Upload Photos

1,802,714 photos uploaded!

WunderBlogs® & News

Nearby

Air Quality

  Air Quality AQ Index Pollutant
Not available.

Snow Depth

Station Depth Elevation

Earthquake Activity

City Distance Mag. Time & Date
Minimum magnitude displayed is 2.5.

Coastal Water Temperatures

Place Temperature

Nearby Weather Stations